Terminal Aerodrome Forecast
Issued by NWS

Home | Current Version | Previous Version | Text Only | Print | Product List | Glossary On
Versions: 1 2 3 4 5 6 7 8 9 10 11 12 13 14 15
232
FTUS43 KJKL 251245 AAA
TAFSJS
TAF AMD
KSJS 251245Z 2513/2612 20011G20KT P6SM OVC050
      TEMPO 2515/2516 26010G24KT 5SM -SHRA BKN025
     FM251600 26009G17KT P6SM VCSH BKN015
     FM251700 27008KT P6SM BKN040
     FM252300 VRB05KT P6SM SCT200=

USA.gov is the U.S. government's official web portal to all federal, state and local government web resources and services.